Pagrindinis puslapis
METAR-TAF:

METAR-TAF

Oro uostai :

Cape Romanzof, Aliaska, Jungtinės Amerikos Valstijos

platuma: 61-47N, ilguma: 166-02W, Aukštis: 139 m

Dabartinis oras

Ataskaita buvo paskelbta 28 minutes, ne 02:55 UTC
Vėjas 19 kt iš Rytų
Temperatūra -3°C
Drėgmė 86%
Slėgis 998 hPa
Matomumas: 12.9 km
Giedras dangus

METAR: PACZ 170255Z AUTO 10019KT 8SM CLR M03/M05 A2948 RMK AO2 SHSNB0151E0202 SLP990 T10311047 57025

Laikas: 18:23 (03:23 UTC)


TAF: trūkstamas

Orai ataskaitas ir orų prognozės (METAR, TAF).

turimą stotys yra geltonos ir raudonos taškus žemėlapyje.

Perkelti pele per norėdami pamatyti stoties vardą.

Tada spustelėkite, norėdami matyti oro stebėjimo ir prognozės.

Norėdami pakeisti žemėlapį: spustelėkite ant žalios mygtukų su juodo kryžiaus žemyn,; žalią mygtuką su brūkšneliu, jei norite nutolinti; arba žalių rodyklių gretimoms žemėlapius.


METAR-TAF: